Hauptseite
METAR-TAF:

METAR-TAF

Flughäfen :

Curaçao, Niederländische Antillen

Flughafen Curaçao

Breite: 12-12N, Länge: 068-58W, Höhe: 9 m

Beobachtung

Neuester Wetterbericht von vor 1 Stunde und 15 Minuten, um 14:00 UTC
Wind 12 kt aus Ost
Temperatur 28°C
Luftfeuchtigkeit 74%
Luftdruck 1014 hPa
Sichtweite 10 km oder mehr
Leicht bewölkt in der Höhe von 1800 ft

METAR: TNCC 291400Z 09012KT 9999 FEW018 28/23 Q1014 NOSIG

Zeit: 11:15 (15:15 UTC)

Prognose

Neuester Wetterbericht von vor 5 Stunden und 45 Minuten, um 09:30 UTC
Gültige Prognose vom 29 um 12 UTC bis 30 um 12 UTC
Wind 12 kt aus Ost
Sichtweite 10 km oder mehr
Aufgelockert bewölkt in der Höhe von 2000 ft
Wahrscheinlichkeit 30% :
Zeitweise
vom 29 um 14 UTC bis 30 um 12 UTC
Durchbrochene Bewölkung in der Höhe von 1500 ft

TAF: TNCC 290930Z 2912/3012 09012KT 9999 SCT020 PROB30 TEMPO 2914/3012 BKN015

Wetterbeobachtungen und Prognosen von mehr als 4000 Flughäfen (METAR und TAF Bericht).

Die verfügbaren Stationen werden durch gelbe und rote Markierungen auf der Karte dargestellt.

Führen Sie die Maus auf sie, um den Namen der Station zu sehen.

Darauf klicken, um die Beobachtung von Wetterbeobachtungen und Prognosen zu sehen.

Um die Karte zu ändern : klicken Sie auf den grünen Tasten mit einem schwarzen Kreuz Zum Vergrößern, auf den grünen Button mit einem Gedankenstrich zu verkleinern, oder auf die grünen Pfeile für benachbarte Karten.


METAR-TAF: